sensor_id;sensor_type;location;lat;lon;timestamp;temperature;humidity
35299;DHT22;21415;48.054;16.646;2023-02-28T00:00:28;6.90;42.30
35299;DHT22;21415;48.054;16.646;2023-02-28T00:02:54;7.60;42.90
35299;DHT22;21415;48.054;16.646;2023-02-28T00:05:21;7.00;42.50
35299;DHT22;21415;48.054;16.646;2023-02-28T00:07:48;6.70;42.40
35299;DHT22;21415;48.054;16.646;2023-02-28T00:10:15;7.40;42.80
35299;DHT22;21415;48.054;16.646;2023-02-28T00:12:41;6.70;42.90
35299;DHT22;21415;48.054;16.646;2023-02-28T00:15:09;6.80;42.50
35299;DHT22;21415;48.054;16.646;2023-02-28T00:17:36;6.70;42.50
35299;DHT22;21415;48.054;16.646;2023-02-28T00:20:03;7.50;42.90
35299;DHT22;21415;48.054;16.646;2023-02-28T00:22:34;6.60;42.50
35299;DHT22;21415;48.054;16.646;2023-02-28T00:25:00;6.60;42.60
35299;DHT22;21415;48.054;16.646;2023-02-28T00:27:29;7.00;43.00
35299;DHT22;21415;48.054;16.646;2023-02-28T00:29:54;6.60;42.90
35299;DHT22;21415;48.054;16.646;2023-02-28T00:32:20;7.10;43.10
35299;DHT22;21415;48.054;16.646;2023-02-28T00:34:46;7.50;43.30
35299;DHT22;21415;48.054;16.646;2023-02-28T00:37:12;7.40;43.30
35299;DHT22;21415;48.054;16.646;2023-02-28T00:39:38;7.30;43.30
35299;DHT22;21415;48.054;16.646;2023-02-28T00:42:05;6.50;42.80
35299;DHT22;21415;48.054;16.646;2023-02-28T00:44:31;6.50;42.80
35299;DHT22;21415;48.054;16.646;2023-02-28T00:46:57;6.50;42.90
35299;DHT22;21415;48.054;16.646;2023-02-28T00:49:24;5.90;42.50
35299;DHT22;21415;48.054;16.646;2023-02-28T00:51:51;6.60;42.80
35299;DHT22;21415;48.054;16.646;2023-02-28T00:54:18;6.60;42.90
35299;DHT22;21415;48.054;16.646;2023-02-28T00:56:46;6.60;42.90
35299;DHT22;21415;48.054;16.646;2023-02-28T00:59:13;6.70;42.80
35299;DHT22;21415;48.054;16.646;2023-02-28T01:01:40;6.90;42.90
35299;DHT22;21415;48.054;16.646;2023-02-28T01:04:05;6.80;42.90
35299;DHT22;21415;48.054;16.646;2023-02-28T01:06:31;6.90;42.90
35299;DHT22;21415;48.054;16.646;2023-02-28T01:08:58;6.90;42.80
35299;DHT22;21415;48.054;16.646;2023-02-28T01:11:23;7.30;42.90
35299;DHT22;21415;48.054;16.646;2023-02-28T01:13:50;7.00;42.90
35299;DHT22;21415;48.054;16.646;2023-02-28T01:16:16;7.40;42.70
35299;DHT22;21415;48.054;16.646;2023-02-28T01:18:41;7.30;42.70
35299;DHT22;21415;48.054;16.646;2023-02-28T01:21:10;7.10;42.50
35299;DHT22;21415;48.054;16.646;2023-02-28T01:23:37;7.50;42.50
35299;DHT22;21415;48.054;16.646;2023-02-28T01:26:07;7.20;42.30
35299;DHT22;21415;48.054;16.646;2023-02-28T01:28:33;7.80;42.50
35299;DHT22;21415;48.054;16.646;2023-02-28T01:30:59;7.20;42.10
35299;DHT22;21415;48.054;16.646;2023-02-28T01:33:25;7.30;42.10
35299;DHT22;21415;48.054;16.646;2023-02-28T01:36:06;7.30;42.10
35299;DHT22;21415;48.054;16.646;2023-02-28T01:38:33;7.30;42.20
35299;DHT22;21415;48.054;16.646;2023-02-28T01:40:59;7.30;42.00
35299;DHT22;21415;48.054;16.646;2023-02-28T01:43:31;7.30;42.00
35299;DHT22;21415;48.054;16.646;2023-02-28T01:45:58;7.30;42.10
35299;DHT22;21415;48.054;16.646;2023-02-28T01:48:31;7.30;42.10
35299;DHT22;21415;48.054;16.646;2023-02-28T01:51:00;7.50;42.20
35299;DHT22;21415;48.054;16.646;2023-02-28T01:53:32;7.80;42.20
35299;DHT22;21415;48.054;16.646;2023-02-28T01:55:59;7.40;42.00
35299;DHT22;21415;48.054;16.646;2023-02-28T01:58:25;7.40;41.90
35299;DHT22;21415;48.054;16.646;2023-02-28T02:00:51;8.00;42.40
35299;DHT22;21415;48.054;16.646;2023-02-28T02:03:18;7.40;41.90
35299;DHT22;21415;48.054;16.646;2023-02-28T02:05:45;7.50;42.00
35299;DHT22;21415;48.054;16.646;2023-02-28T02:08:25;7.50;42.00
35299;DHT22;21415;48.054;16.646;2023-02-28T02:10:59;7.30;42.00
35299;DHT22;21415;48.054;16.646;2023-02-28T02:18:49;7.50;42.20
35299;DHT22;21415;48.054;16.646;2023-02-28T02:21:58;7.50;42.10
35299;DHT22;21415;48.054;16.646;2023-02-28T02:33:17;7.50;42.50
35299;DHT22;21415;48.054;16.646;2023-02-28T02:38:45;7.50;42.40
35299;DHT22;21415;48.054;16.646;2023-02-28T02:41:27;7.50;42.50
35299;DHT22;21415;48.054;16.646;2023-02-28T02:46:45;7.50;42.30
35299;DHT22;21415;48.054;16.646;2023-02-28T02:49:35;7.40;42.30
35299;DHT22;21415;48.054;16.646;2023-02-28T02:52:08;7.40;42.30
35299;DHT22;21415;48.054;16.646;2023-02-28T02:54:41;7.40;42.30
35299;DHT22;21415;48.054;16.646;2023-02-28T02:57:12;7.40;42.30
35299;DHT22;21415;48.054;16.646;2023-02-28T02:59:40;7.40;42.20
35299;DHT22;21415;48.054;16.646;2023-02-28T03:02:10;7.40;42.20
35299;DHT22;21415;48.054;16.646;2023-02-28T03:04:51;7.40;42.10
35299;DHT22;21415;48.054;16.646;2023-02-28T03:07:20;7.30;42.30
35299;DHT22;21415;48.054;16.646;2023-02-28T03:09:54;7.70;42.30
35299;DHT22;21415;48.054;16.646;2023-02-28T03:12:20;7.30;42.40
35299;DHT22;21415;48.054;16.646;2023-02-28T03:15:07;7.40;42.00
35299;DHT22;21415;48.054;16.646;2023-02-28T03:22:56;7.10;42.20
35299;DHT22;21415;48.054;16.646;2023-02-28T03:25:44;7.10;42.50
35299;DHT22;21415;48.054;16.646;2023-02-28T03:28:29;7.50;42.70
35299;DHT22;21415;48.054;16.646;2023-02-28T03:31:07;7.00;42.20
35299;DHT22;21415;48.054;16.646;2023-02-28T03:33:40;7.00;42.50
35299;DHT22;21415;48.054;16.646;2023-02-28T03:36:12;6.90;42.10
35299;DHT22;21415;48.054;16.646;2023-02-28T03:38:49;6.90;42.20
35299;DHT22;21415;48.054;16.646;2023-02-28T03:41:23;6.80;42.30
35299;DHT22;21415;48.054;16.646;2023-02-28T03:43:58;7.60;42.70
35299;DHT22;21415;48.054;16.646;2023-02-28T03:46:28;7.30;42.60
35299;DHT22;21415;48.054;16.646;2023-02-28T03:49:11;6.80;42.30
35299;DHT22;21415;48.054;16.646;2023-02-28T03:51:40;6.70;42.70
35299;DHT22;21415;48.054;16.646;2023-02-28T03:54:12;6.70;42.20
35299;DHT22;21415;48.054;16.646;2023-02-28T03:57:02;6.80;42.40
35299;DHT22;21415;48.054;16.646;2023-02-28T03:59:36;6.90;42.40
35299;DHT22;21415;48.054;16.646;2023-02-28T04:02:03;6.70;42.50
35299;DHT22;21415;48.054;16.646;2023-02-28T04:04:29;7.10;42.50
35299;DHT22;21415;48.054;16.646;2023-02-28T04:07:02;6.80;42.50
35299;DHT22;21415;48.054;16.646;2023-02-28T04:09:29;6.60;42.60
35299;DHT22;21415;48.054;16.646;2023-02-28T04:11:58;6.50;42.30
35299;DHT22;21415;48.054;16.646;2023-02-28T04:14:25;6.70;42.50
35299;DHT22;21415;48.054;16.646;2023-02-28T04:16:51;6.50;42.60
35299;DHT22;21415;48.054;16.646;2023-02-28T04:19:19;6.40;42.40
35299;DHT22;21415;48.054;16.646;2023-02-28T04:21:48;6.60;42.50
35299;DHT22;21415;48.054;16.646;2023-02-28T04:24:16;6.40;42.50
35299;DHT22;21415;48.054;16.646;2023-02-28T04:26:44;6.40;42.40
35299;DHT22;21415;48.054;16.646;2023-02-28T04:29:12;6.50;42.50
35299;DHT22;21415;48.054;16.646;2023-02-28T04:31:39;6.30;42.50
35299;DHT22;21415;48.054;16.646;2023-02-28T04:34:05;6.20;42.40
35299;DHT22;21415;48.054;16.646;2023-02-28T04:36:32;6.30;42.50
35299;DHT22;21415;48.054;16.646;2023-02-28T04:39:01;6.40;42.70
35299;DHT22;21415;48.054;16.646;2023-02-28T04:41:36;6.20;42.70
35299;DHT22;21415;48.054;16.646;2023-02-28T04:44:10;6.20;42.60
35299;DHT22;21415;48.054;16.646;2023-02-28T04:46:39;6.10;42.60
35299;DHT22;21415;48.054;16.646;2023-02-28T04:49:09;6.10;42.80
35299;DHT22;21415;48.054;16.646;2023-02-28T04:51:36;6.20;42.70
35299;DHT22;21415;48.054;16.646;2023-02-28T04:54:02;6.10;42.70
35299;DHT22;21415;48.054;16.646;2023-02-28T04:56:28;6.00;42.70
35299;DHT22;21415;48.054;16.646;2023-02-28T04:58:56;6.50;42.90
35299;DHT22;21415;48.054;16.646;2023-02-28T05:03:54;6.20;43.60
35299;DHT22;21415;48.054;16.646;2023-02-28T05:06:22;5.80;42.80
35299;DHT22;21415;48.054;16.646;2023-02-28T05:08:49;6.10;42.90
35299;DHT22;21415;48.054;16.646;2023-02-28T05:11:29;6.20;43.10
35299;DHT22;21415;48.054;16.646;2023-02-28T05:14:01;5.90;43.10
35299;DHT22;21415;48.054;16.646;2023-02-28T05:16:31;6.70;43.50
35299;DHT22;21415;48.054;16.646;2023-02-28T05:19:05;5.80;43.00
35299;DHT22;21415;48.054;16.646;2023-02-28T05:21:41;6.50;43.40
35299;DHT22;21415;48.054;16.646;2023-02-28T05:24:13;5.60;43.00
35299;DHT22;21415;48.054;16.646;2023-02-28T05:26:41;6.40;43.60
35299;DHT22;21415;48.054;16.646;2023-02-28T05:29:13;6.00;43.40
35299;DHT22;21415;48.054;16.646;2023-02-28T05:31:40;6.10;43.60
35299;DHT22;21415;48.054;16.646;2023-02-28T05:34:11;5.70;43.30
35299;DHT22;21415;48.054;16.646;2023-02-28T05:36:43;5.70;43.40
35299;DHT22;21415;48.054;16.646;2023-02-28T05:39:14;6.40;43.80
35299;DHT22;21415;48.054;16.646;2023-02-28T05:41:43;5.70;43.60
35299;DHT22;21415;48.054;16.646;2023-02-28T05:44:10;5.90;43.70
35299;DHT22;21415;48.054;16.646;2023-02-28T05:46:41;6.50;44.10
35299;DHT22;21415;48.054;16.646;2023-02-28T05:49:22;6.60;44.20
35299;DHT22;21415;48.054;16.646;2023-02-28T05:51:55;6.20;44.00
35299;DHT22;21415;48.054;16.646;2023-02-28T05:54:28;6.50;44.10
35299;DHT22;21415;48.054;16.646;2023-02-28T05:56:57;5.80;43.60
35299;DHT22;21415;48.054;16.646;2023-02-28T05:59:23;5.90;43.90
35299;DHT22;21415;48.054;16.646;2023-02-28T06:01:51;6.10;43.90
35299;DHT22;21415;48.054;16.646;2023-02-28T06:04:31;5.60;43.60
35299;DHT22;21415;48.054;16.646;2023-02-28T06:07:01;6.40;44.00
35299;DHT22;21415;48.054;16.646;2023-02-28T06:09:32;6.20;44.00
35299;DHT22;21415;48.054;16.646;2023-02-28T06:12:01;6.90;44.30
35299;DHT22;21415;48.054;16.646;2023-02-28T06:14:33;6.60;44.10
35299;DHT22;21415;48.054;16.646;2023-02-28T06:16:59;6.50;44.10
35299;DHT22;21415;48.054;16.646;2023-02-28T06:19:26;7.10;44.40
35299;DHT22;21415;48.054;16.646;2023-02-28T06:21:53;6.20;44.00
35299;DHT22;21415;48.054;16.646;2023-02-28T06:24:26;6.50;44.10
35299;DHT22;21415;48.054;16.646;2023-02-28T06:29:44;6.60;44.30
35299;DHT22;21415;48.054;16.646;2023-02-28T06:32:15;6.50;44.20
35299;DHT22;21415;48.054;16.646;2023-02-28T06:34:43;6.10;43.90
35299;DHT22;21415;48.054;16.646;2023-02-28T06:37:17;6.60;44.30
35299;DHT22;21415;48.054;16.646;2023-02-28T06:39:47;6.60;44.10
35299;DHT22;21415;48.054;16.646;2023-02-28T06:42:13;6.50;44.10
35299;DHT22;21415;48.054;16.646;2023-02-28T06:44:45;6.70;44.30
35299;DHT22;21415;48.054;16.646;2023-02-28T06:47:11;6.50;44.00
35299;DHT22;21415;48.054;16.646;2023-02-28T06:49:37;6.80;44.20
35299;DHT22;21415;48.054;16.646;2023-02-28T06:52:08;6.90;44.10
35299;DHT22;21415;48.054;16.646;2023-02-28T06:54:36;6.90;44.20
35299;DHT22;21415;48.054;16.646;2023-02-28T06:57:04;7.50;44.40
35299;DHT22;21415;48.054;16.646;2023-02-28T06:59:30;7.60;44.50
35299;DHT22;21415;48.054;16.646;2023-02-28T07:01:56;7.10;44.10
35299;DHT22;21415;48.054;16.646;2023-02-28T07:04:22;7.90;44.50
35299;DHT22;21415;48.054;16.646;2023-02-28T07:06:48;7.30;44.00
35299;DHT22;21415;48.054;16.646;2023-02-28T07:09:14;7.30;43.90
35299;DHT22;21415;48.054;16.646;2023-02-28T07:11:40;7.70;44.10
35299;DHT22;21415;48.054;16.646;2023-02-28T07:14:07;7.80;44.20
35299;DHT22;21415;48.054;16.646;2023-02-28T07:16:33;7.30;43.70
35299;DHT22;21415;48.054;16.646;2023-02-28T07:18:58;7.40;43.80
35299;DHT22;21415;48.054;16.646;2023-02-28T07:21:24;7.40;43.90
35299;DHT22;21415;48.054;16.646;2023-02-28T07:23:50;7.60;43.90
35299;DHT22;21415;48.054;16.646;2023-02-28T07:26:18;7.50;43.70
35299;DHT22;21415;48.054;16.646;2023-02-28T07:28:46;7.50;43.90
35299;DHT22;21415;48.054;16.646;2023-02-28T07:31:12;7.70;43.70
35299;DHT22;21415;48.054;16.646;2023-02-28T07:33:41;7.60;43.60
35299;DHT22;21415;48.054;16.646;2023-02-28T07:36:10;7.70;43.70
35299;DHT22;21415;48.054;16.646;2023-02-28T07:38:41;7.60;43.60
35299;DHT22;21415;48.054;16.646;2023-02-28T07:41:07;7.80;43.60
35299;DHT22;21415;48.054;16.646;2023-02-28T07:43:34;7.70;43.60
35299;DHT22;21415;48.054;16.646;2023-02-28T07:46:11;7.80;43.50
35299;DHT22;21415;48.054;16.646;2023-02-28T07:48:37;7.70;43.40
35299;DHT22;21415;48.054;16.646;2023-02-28T07:51:03;7.90;43.40
35299;DHT22;21415;48.054;16.646;2023-02-28T07:53:29;7.70;43.30
35299;DHT22;21415;48.054;16.646;2023-02-28T07:56:02;7.70;43.20
35299;DHT22;21415;48.054;16.646;2023-02-28T07:58:29;7.80;43.40
35299;DHT22;21415;48.054;16.646;2023-02-28T08:00:56;7.80;43.40
35299;DHT22;21415;48.054;16.646;2023-02-28T08:03:22;7.80;43.30
35299;DHT22;21415;48.054;16.646;2023-02-28T08:05:48;7.80;43.40
35299;DHT22;21415;48.054;16.646;2023-02-28T08:08:16;7.90;43.60
35299;DHT22;21415;48.054;16.646;2023-02-28T08:10:42;7.90;43.50
35299;DHT22;21415;48.054;16.646;2023-02-28T08:13:08;7.90;43.50
35299;DHT22;21415;48.054;16.646;2023-02-28T08:15:34;8.10;43.70
35299;DHT22;21415;48.054;16.646;2023-02-28T08:18:01;8.00;43.60
35299;DHT22;21415;48.054;16.646;2023-02-28T08:20:27;8.10;43.60
35299;DHT22;21415;48.054;16.646;2023-02-28T08:22:53;8.10;43.60
35299;DHT22;21415;48.054;16.646;2023-02-28T08:25:19;8.20;43.50
35299;DHT22;21415;48.054;16.646;2023-02-28T08:27:45;8.20;43.40
35299;DHT22;21415;48.054;16.646;2023-02-28T08:30:12;8.30;43.50
35299;DHT22;21415;48.054;16.646;2023-02-28T08:32:39;8.30;43.30
35299;DHT22;21415;48.054;16.646;2023-02-28T08:35:05;8.60;43.60
35299;DHT22;21415;48.054;16.646;2023-02-28T08:37:31;8.40;43.40
35299;DHT22;21415;48.054;16.646;2023-02-28T08:39:57;8.50;43.50
35299;DHT22;21415;48.054;16.646;2023-02-28T08:42:23;8.60;43.40
35299;DHT22;21415;48.054;16.646;2023-02-28T08:44:49;8.80;43.40
35299;DHT22;21415;48.054;16.646;2023-02-28T08:47:15;8.60;43.30
35299;DHT22;21415;48.054;16.646;2023-02-28T08:53:28;8.70;42.80
35299;DHT22;21415;48.054;16.646;2023-02-28T08:56:08;8.80;43.10
35299;DHT22;21415;48.054;16.646;2023-02-28T08:58:35;8.90;42.80
35299;DHT22;21415;48.054;16.646;2023-02-28T09:01:06;8.90;43.00
35299;DHT22;21415;48.054;16.646;2023-02-28T09:03:32;9.00;42.90
35299;DHT22;21415;48.054;16.646;2023-02-28T09:06:00;9.10;42.90
35299;DHT22;21415;48.054;16.646;2023-02-28T09:08:28;9.10;42.90
35299;DHT22;21415;48.054;16.646;2023-02-28T09:10:54;9.10;42.90
35299;DHT22;21415;48.054;16.646;2023-02-28T09:13:22;9.40;43.00
35299;DHT22;21415;48.054;16.646;2023-02-28T09:18:42;9.30;42.80
35299;DHT22;21415;48.054;16.646;2023-02-28T09:21:12;9.50;42.80
35299;DHT22;21415;48.054;16.646;2023-02-28T09:23:42;9.50;42.70
35299;DHT22;21415;48.054;16.646;2023-02-28T09:26:14;9.60;42.70
35299;DHT22;21415;48.054;16.646;2023-02-28T09:28:40;9.70;42.60
35299;DHT22;21415;48.054;16.646;2023-02-28T09:31:06;9.80;42.70
35299;DHT22;21415;48.054;16.646;2023-02-28T09:33:31;9.90;42.80
35299;DHT22;21415;48.054;16.646;2023-02-28T09:36:00;10.00;42.60
35299;DHT22;21415;48.054;16.646;2023-02-28T09:38:26;10.10;42.60
35299;DHT22;21415;48.054;16.646;2023-02-28T09:41:00;10.10;42.50
35299;DHT22;21415;48.054;16.646;2023-02-28T09:43:31;10.20;42.30
35299;DHT22;21415;48.054;16.646;2023-02-28T09:48:46;10.40;42.20
35299;DHT22;21415;48.054;16.646;2023-02-28T09:51:15;10.50;42.20
35299;DHT22;21415;48.054;16.646;2023-02-28T09:53:48;10.70;42.30
35299;DHT22;21415;48.054;16.646;2023-02-28T09:56:36;10.70;42.10
35299;DHT22;21415;48.054;16.646;2023-02-28T09:59:38;10.90;41.70
35299;DHT22;21415;48.054;16.646;2023-02-28T10:04:59;11.10;41.30
35299;DHT22;21415;48.054;16.646;2023-02-28T10:16:14;11.40;40.60
35299;DHT22;21415;48.054;16.646;2023-02-28T10:18:49;11.40;40.80
35299;DHT22;21415;48.054;16.646;2023-02-28T10:21:44;11.50;40.90
35299;DHT22;21415;48.054;16.646;2023-02-28T10:27:27;11.50;40.20
35299;DHT22;21415;48.054;16.646;2023-02-28T10:29:56;11.50;40.30
35299;DHT22;21415;48.054;16.646;2023-02-28T10:32:27;11.50;40.40
35299;DHT22;21415;48.054;16.646;2023-02-28T10:37:46;11.50;39.50
35299;DHT22;21415;48.054;16.646;2023-02-28T10:45:36;11.50;39.50
35299;DHT22;21415;48.054;16.646;2023-02-28T10:50:41;11.40;39.70
35299;DHT22;21415;48.054;16.646;2023-02-28T10:58:30;11.50;39.40
35299;DHT22;21415;48.054;16.646;2023-02-28T11:00:57;11.50;39.80
35299;DHT22;21415;48.054;16.646;2023-02-28T11:03:29;11.50;39.70
35299;DHT22;21415;48.054;16.646;2023-02-28T11:05:55;11.50;39.50
35299;DHT22;21415;48.054;16.646;2023-02-28T11:08:21;11.50;39.60
35299;DHT22;21415;48.054;16.646;2023-02-28T11:10:53;11.50;39.60
35299;DHT22;21415;48.054;16.646;2023-02-28T11:13:24;11.50;39.40
35299;DHT22;21415;48.054;16.646;2023-02-28T11:15:55;11.50;39.20
35299;DHT22;21415;48.054;16.646;2023-02-28T11:18:29;11.50;38.80
35299;DHT22;21415;48.054;16.646;2023-02-28T11:20:58;11.50;38.80
35299;DHT22;21415;48.054;16.646;2023-02-28T11:23:27;11.50;39.10
35299;DHT22;21415;48.054;16.646;2023-02-28T11:25:58;11.50;39.10
35299;DHT22;21415;48.054;16.646;2023-02-28T11:28:36;11.50;38.80
35299;DHT22;21415;48.054;16.646;2023-02-28T11:33:55;11.50;38.20
35299;DHT22;21415;48.054;16.646;2023-02-28T11:36:27;11.50;38.30
35299;DHT22;21415;48.054;16.646;2023-02-28T11:38:59;11.50;38.70
35299;DHT22;21415;48.054;16.646;2023-02-28T11:45:08;11.50;38.20
35299;DHT22;21415;48.054;16.646;2023-02-28T11:50:54;11.50;38.20
35299;DHT22;21415;48.054;16.646;2023-02-28T12:07:21;11.50;38.40
35299;DHT22;21415;48.054;16.646;2023-02-28T12:10:12;11.50;38.10
35299;DHT22;21415;48.054;16.646;2023-02-28T12:16:00;11.50;37.40
35299;DHT22;21415;48.054;16.646;2023-02-28T12:19:01;11.50;37.60
35299;DHT22;21415;48.054;16.646;2023-02-28T12:27:03;11.50;37.80
35299;DHT22;21415;48.054;16.646;2023-02-28T12:29:54;11.50;37.90
35299;DHT22;21415;48.054;16.646;2023-02-28T12:32:27;11.50;37.50
35299;DHT22;21415;48.054;16.646;2023-02-28T12:40:17;11.60;37.80
35299;DHT22;21415;48.054;16.646;2023-02-28T12:42:48;11.60;37.70
35299;DHT22;21415;48.054;16.646;2023-02-28T12:45:24;11.60;38.00
35299;DHT22;21415;48.054;16.646;2023-02-28T12:48:00;11.60;37.90
35299;DHT22;21415;48.054;16.646;2023-02-28T12:50:27;11.70;37.90
35299;DHT22;21415;48.054;16.646;2023-02-28T12:55:47;11.70;37.20
35299;DHT22;21415;48.054;16.646;2023-02-28T13:06:41;11.70;37.40
35299;DHT22;21415;48.054;16.646;2023-02-28T13:09:17;11.60;37.10
35299;DHT22;21415;48.054;16.646;2023-02-28T13:11:45;11.60;37.40
35299;DHT22;21415;48.054;16.646;2023-02-28T13:14:30;11.50;37.50
35299;DHT22;21415;48.054;16.646;2023-02-28T13:19:46;11.50;37.20
35299;DHT22;21415;48.054;16.646;2023-02-28T13:22:47;11.50;37.30
35299;DHT22;21415;48.054;16.646;2023-02-28T13:27:57;11.50;37.50
35299;DHT22;21415;48.054;16.646;2023-02-28T13:33:34;11.40;37.50
35299;DHT22;21415;48.054;16.646;2023-02-28T13:36:06;11.50;37.80
35299;DHT22;21415;48.054;16.646;2023-02-28T13:41:42;11.50;37.70
35299;DHT22;21415;48.054;16.646;2023-02-28T13:52:18;11.50;37.50
35299;DHT22;21415;48.054;16.646;2023-02-28T13:55:23;11.40;37.30
35299;DHT22;21415;48.054;16.646;2023-02-28T13:58:43;11.40;37.40
35299;DHT22;21415;48.054;16.646;2023-02-28T14:06:57;11.30;37.40
35299;DHT22;21415;48.054;16.646;2023-02-28T14:09:40;11.30;37.80
35299;DHT22;21415;48.054;16.646;2023-02-28T14:20:44;11.30;37.60
35299;DHT22;21415;48.054;16.646;2023-02-28T14:28:50;11.20;37.60
35299;DHT22;21415;48.054;16.646;2023-02-28T14:31:29;11.20;37.30
35299;DHT22;21415;48.054;16.646;2023-02-28T14:36:36;11.20;37.70
35299;DHT22;21415;48.054;16.646;2023-02-28T14:39:10;11.20;37.40
35299;DHT22;21415;48.054;16.646;2023-02-28T14:41:39;11.20;37.50
35299;DHT22;21415;48.054;16.646;2023-02-28T14:44:26;11.20;37.60
35299;DHT22;21415;48.054;16.646;2023-02-28T14:46:59;11.20;37.20
35299;DHT22;21415;48.054;16.646;2023-02-28T14:49:35;11.20;37.50
35299;DHT22;21415;48.054;16.646;2023-02-28T14:52:15;11.20;37.50
35299;DHT22;21415;48.054;16.646;2023-02-28T14:54:41;11.30;37.40
35299;DHT22;21415;48.054;16.646;2023-02-28T14:57:26;11.20;37.40
35299;DHT22;21415;48.054;16.646;2023-02-28T15:00:09;11.20;37.00
35299;DHT22;21415;48.054;16.646;2023-02-28T15:02:39;11.20;37.20
35299;DHT22;21415;48.054;16.646;2023-02-28T15:07:47;11.20;37.20
35299;DHT22;21415;48.054;16.646;2023-02-28T15:10:20;11.20;37.40
35299;DHT22;21415;48.054;16.646;2023-02-28T15:12:57;11.20;37.30
35299;DHT22;21415;48.054;16.646;2023-02-28T15:18:03;11.20;37.30
35299;DHT22;21415;48.054;16.646;2023-02-28T15:20:32;11.20;37.40
35299;DHT22;21415;48.054;16.646;2023-02-28T15:22:58;11.20;37.50
35299;DHT22;21415;48.054;16.646;2023-02-28T15:25:25;11.20;37.40
35299;DHT22;21415;48.054;16.646;2023-02-28T15:27:56;11.20;37.30
35299;DHT22;21415;48.054;16.646;2023-02-28T15:30:31;11.20;37.00
35299;DHT22;21415;48.054;16.646;2023-02-28T15:33:18;11.20;36.90
35299;DHT22;21415;48.054;16.646;2023-02-28T15:35:44;11.20;36.80
35299;DHT22;21415;48.054;16.646;2023-02-28T15:40:43;11.20;36.90
35299;DHT22;21415;48.054;16.646;2023-02-28T15:45:47;11.10;36.80
35299;DHT22;21415;48.054;16.646;2023-02-28T15:48:44;11.10;36.90
35299;DHT22;21415;48.054;16.646;2023-02-28T15:51:21;11.10;36.60
35299;DHT22;21415;48.054;16.646;2023-02-28T15:53:54;11.10;36.60
35299;DHT22;21415;48.054;16.646;2023-02-28T15:56:27;11.10;36.80
35299;DHT22;21415;48.054;16.646;2023-02-28T15:58:58;11.10;36.70
35299;DHT22;21415;48.054;16.646;2023-02-28T16:01:35;11.10;36.90
35299;DHT22;21415;48.054;16.646;2023-02-28T16:04:04;11.10;37.00
35299;DHT22;21415;48.054;16.646;2023-02-28T16:06:34;11.10;37.00
35299;DHT22;21415;48.054;16.646;2023-02-28T16:09:01;11.00;37.00
35299;DHT22;21415;48.054;16.646;2023-02-28T16:11:27;11.00;36.90
35299;DHT22;21415;48.054;16.646;2023-02-28T16:13:53;11.10;37.00
35299;DHT22;21415;48.054;16.646;2023-02-28T16:16:24;11.00;36.90
35299;DHT22;21415;48.054;16.646;2023-02-28T16:18:51;11.00;36.90
35299;DHT22;21415;48.054;16.646;2023-02-28T16:21:18;11.00;37.10
35299;DHT22;21415;48.054;16.646;2023-02-28T16:23:43;11.00;37.10
35299;DHT22;21415;48.054;16.646;2023-02-28T16:26:19;10.90;37.10
35299;DHT22;21415;48.054;16.646;2023-02-28T16:28:46;11.00;37.20
35299;DHT22;21415;48.054;16.646;2023-02-28T16:31:12;10.90;37.20
35299;DHT22;21415;48.054;16.646;2023-02-28T16:33:43;10.90;37.30
35299;DHT22;21415;48.054;16.646;2023-02-28T16:36:20;10.90;37.40
35299;DHT22;21415;48.054;16.646;2023-02-28T16:38:46;10.80;37.40
35299;DHT22;21415;48.054;16.646;2023-02-28T16:41:16;10.80;37.90
35299;DHT22;21415;48.054;16.646;2023-02-28T16:43:46;10.80;37.50
35299;DHT22;21415;48.054;16.646;2023-02-28T16:46:13;10.80;37.60
35299;DHT22;21415;48.054;16.646;2023-02-28T16:48:39;10.70;37.60
35299;DHT22;21415;48.054;16.646;2023-02-28T16:51:16;10.70;37.70
35299;DHT22;21415;48.054;16.646;2023-02-28T16:53:42;10.70;37.80
35299;DHT22;21415;48.054;16.646;2023-02-28T16:56:20;10.60;37.80
35299;DHT22;21415;48.054;16.646;2023-02-28T16:58:47;10.60;37.90
35299;DHT22;21415;48.054;16.646;2023-02-28T17:01:14;10.50;37.90
35299;DHT22;21415;48.054;16.646;2023-02-28T17:03:40;10.20;37.80
35299;DHT22;21415;48.054;16.646;2023-02-28T17:06:13;10.40;38.00
35299;DHT22;21415;48.054;16.646;2023-02-28T17:08:41;10.40;38.10
35299;DHT22;21415;48.054;16.646;2023-02-28T17:11:08;10.40;38.10
35299;DHT22;21415;48.054;16.646;2023-02-28T17:13:34;10.30;38.10
35299;DHT22;21415;48.054;16.646;2023-02-28T17:16:00;10.30;38.10
35299;DHT22;21415;48.054;16.646;2023-02-28T17:18:26;10.30;38.20
35299;DHT22;21415;48.054;16.646;2023-02-28T17:20:59;10.20;38.30
35299;DHT22;21415;48.054;16.646;2023-02-28T17:23:28;10.20;38.50
35299;DHT22;21415;48.054;16.646;2023-02-28T17:25:54;10.10;38.50
35299;DHT22;21415;48.054;16.646;2023-02-28T17:28:21;10.10;38.40
35299;DHT22;21415;48.054;16.646;2023-02-28T17:30:48;10.10;38.50
35299;DHT22;21415;48.054;16.646;2023-02-28T17:33:14;10.10;38.60
35299;DHT22;21415;48.054;16.646;2023-02-28T17:35:40;10.00;38.60
35299;DHT22;21415;48.054;16.646;2023-02-28T17:41:54;9.90;38.90
35299;DHT22;21415;48.054;16.646;2023-02-28T17:44:21;9.90;39.10
35299;DHT22;21415;48.054;16.646;2023-02-28T17:46:47;9.80;38.70
35299;DHT22;21415;48.054;16.646;2023-02-28T17:49:15;9.80;38.70
35299;DHT22;21415;48.054;16.646;2023-02-28T17:51:41;9.70;38.60
35299;DHT22;21415;48.054;16.646;2023-02-28T17:54:07;9.60;38.60
35299;DHT22;21415;48.054;16.646;2023-02-28T17:56:33;9.60;38.60
35299;DHT22;21415;48.054;16.646;2023-02-28T17:58:59;9.60;38.60
35299;DHT22;21415;48.054;16.646;2023-02-28T18:01:25;9.50;38.70
35299;DHT22;21415;48.054;16.646;2023-02-28T18:03:54;9.50;38.70
35299;DHT22;21415;48.054;16.646;2023-02-28T18:06:24;9.40;38.60
35299;DHT22;21415;48.054;16.646;2023-02-28T18:08:50;9.40;38.80
35299;DHT22;21415;48.054;16.646;2023-02-28T18:11:21;9.30;38.60
35299;DHT22;21415;48.054;16.646;2023-02-28T18:13:51;9.30;38.70
35299;DHT22;21415;48.054;16.646;2023-02-28T18:16:18;9.20;38.70
35299;DHT22;21415;48.054;16.646;2023-02-28T18:18:45;9.10;38.70
35299;DHT22;21415;48.054;16.646;2023-02-28T18:21:13;9.10;38.80
35299;DHT22;21415;48.054;16.646;2023-02-28T18:23:39;9.00;38.80
35299;DHT22;21415;48.054;16.646;2023-02-28T18:26:16;9.00;38.80
35299;DHT22;21415;48.054;16.646;2023-02-28T18:28:43;9.00;38.90
35299;DHT22;21415;48.054;16.646;2023-02-28T18:31:11;9.00;38.90
35299;DHT22;21415;48.054;16.646;2023-02-28T18:33:38;8.90;38.90
35299;DHT22;21415;48.054;16.646;2023-02-28T18:36:04;8.90;38.90
35299;DHT22;21415;48.054;16.646;2023-02-28T18:38:31;8.90;38.90
35299;DHT22;21415;48.054;16.646;2023-02-28T18:40:59;8.90;39.00